Hovedside
METAR-TAF:

METAR-TAF

Lufthavner :

Weno, Mikronesia

breddegrad: 07-28N, lengdegrad: 151-51E, høyde over havet: 3 m

Gjeldene værobservasjon

Denne rapporten ble laget for 32 minutter siden, klokken 04:50 UTC
Vind 5 kt fra skiftende retning
Temperatur 29°C
Luftfuktighet 84%
Trykk 1007 hPa
Sikt: 22.5 km
Få skyer i en høyde av 1400 ft, Bygeskyer.
Brutte skyer i en høyde av 12000 ft
Overskyet i en høyde av 28000 ft
lette regnbyger

METAR: PTKK 200450Z VRB05KT 14SM -SHRA FEW014CB BKN120 OVC280 29/26 A2975 RMK SHRAE05B48 CB NE-E-SE SLP076 T02930258

Tid: 15:22 (05:22 UTC)

Varsel

Denne rapporten ble laget for 5 timer og 33 minutter siden, klokken 23:49 UTC
Varsel gyldig fra 20. klokken 00 UTC til 20. klokken 24 UTC
Vind 11 kt fra Nordøst
Sikt: 10 km
Få skyer i en høyde av 1600 ft
Spredte skyer i en høyde av 4000 ft
Brutte skyer i en høyde av 12000 ft
regnbyger i nærheten

TAF: PTKK 192349Z 2000/2024 05011KT P6SM VCSH FEW016 SCT040 BKN120

Værobservasjoner og værvarsel for over 4000 flyplasser (METAR- og TAF-rapporter).

Tilgjengelige stasjoner er representert av de røde og gule prikkene på kartet.

Hold musepekeren over prikken for å se navnet på stasjonen.

Klikk så for å se værobservasjoner og -varsler.

For å forandre kartet kan du klikke på den grønne knappen med svart kryss for å zoome inn, på den grønne knappen med strek for å zoome ut, eller på de grønne pilene for å se tilstøtende kart.


METAR-TAF: